Time;durP1;ratioP1;P1;durP2;ratioP2;P2;SDS_P1;SDS_P2;PMS_P1;PMS_P2;Temp;Humidity;BMP_temperature;BMP_pressure;BME280_temperature;BME280_humidity;BME280_pressure;Samples;Min_cycle;Max_cycle;Signal;HPM_P1;HPM_P2
2021/10/15 00:02:06;;;;;;;4.68;2.50;;;19.80;96.70;;;;;;5034418;28;20025;-71
2021/10/15 00:04:33;;;;;;;3.53;3.00;;;20.00;97.20;;;;;;5034267;28;20045;-71
2021/10/15 00:07:00;;;;;;;5.40;3.10;;;20.40;96.60;;;;;;5034530;28;20033;-70
2021/10/15 00:09:28;;;;;;;4.68;2.50;;;20.50;95.50;;;;;;5034343;28;20026;-71
2021/10/15 00:11:55;;;;;;;4.10;2.85;;;20.50;94.90;;;;;;5034270;28;20029;-71
2021/10/15 00:14:22;;;;;;;3.95;2.42;;;20.90;94.50;;;;;;5016346;28;20048;-72
2021/10/15 00:16:50;;;;;;;7.63;2.80;;;20.90;93.10;;;;;;5034206;28;20091;-70
2021/10/15 00:19:17;;;;;;;7.75;2.60;;;21.00;92.60;;;;;;5033806;28;20087;-71
2021/10/15 00:21:44;;;;;;;8.43;3.13;;;21.00;92.30;;;;;;5033844;28;20027;-70
2021/10/15 00:24:12;;;;;;;5.72;2.83;;;21.10;90.90;;;;;;5033658;28;20025;-71
2021/10/15 00:26:39;;;;;;;2.88;2.20;;;21.20;92.80;;;;;;5033820;28;20087;-71
2021/10/15 00:29:09;;;;;;;7.53;2.50;;;21.40;91.60;;;;;;5033870;28;20368;-72
2021/10/15 00:31:36;;;;;;;5.13;2.63;;;21.60;90.80;;;;;;5033739;28;20075;-71
2021/10/15 00:34:04;;;;;;;6.90;2.50;;;21.70;90.90;;;;;;5033538;28;20266;-71
2021/10/15 00:36:31;;;;;;;8.43;2.70;;;21.90;91.50;;;;;;5033675;28;20029;-70
2021/10/15 00:38:59;;;;;;;4.60;2.67;;;21.80;90.40;;;;;;5033530;28;20018;-71
2021/10/15 00:41:26;;;;;;;9.02;3.13;;;21.90;90.30;;;;;;5033867;28;20021;-70
2021/10/15 00:44:11;;;;;;;8.30;2.60;;;22.00;89.30;;;;;;5032214;28;20021;-70
2021/10/15 00:46:39;;;;;;;8.45;2.80;;;22.00;87.70;;;;;;5033650;28;20025;-71
2021/10/15 00:49:11;;;;;;;8.75;2.83;;;22.10;90.40;;;;;;5015726;28;20195;-71
2021/10/15 00:51:40;;;;;;;7.38;2.97;;;22.30;90.00;;;;;;5033635;28;20025;-71
2021/10/15 00:54:07;;;;;;;7.35;3.55;;;22.60;90.70;;;;;;5033559;28;20048;-70
2021/10/15 00:56:35;;;;;;;10.63;3.53;;;22.50;83.60;;;;;;5033283;28;20070;-71
2021/10/15 00:59:02;;;;;;;7.97;2.90;;;22.30;81.10;;;;;;5033277;28;20393;-71
2021/10/15 01:01:31;;;;;;;9.63;3.00;;;22.20;83.40;;;;;;5033277;28;20017;-70
2021/10/15 01:04:02;;;;;;;11.10;3.67;;;22.50;83.60;;;;;;5033162;28;20018;-69
2021/10/15 01:06:31;;;;;;;10.85;3.08;;;22.50;81.40;;;;;;5031626;28;20051;-69
2021/10/15 01:09:00;;;;;;;8.27;2.95;;;22.50;81.20;;;;;;5033094;28;20026;-70
2021/10/15 01:11:28;;;;;;;11.77;2.97;;;22.90;81.80;;;;;;5033065;28;20550;-70
2021/10/15 01:13:56;;;;;;;9.57;3.08;;;22.90;80.00;;;;;;5032967;28;20083;-69
2021/10/15 01:16:30;;;;;;;11.25;2.70;;;23.00;78.90;;;;;;5015691;28;20385;-71
2021/10/15 01:18:59;;;;;;;11.57;2.90;;;22.80;76.00;;;;;;5031657;28;20079;-70
2021/10/15 01:21:28;;;;;;;8.02;3.00;;;23.00;79.70;;;;;;5015106;28;20044;-70
2021/10/15 01:23:58;;;;;;;9.55;2.92;;;22.70;77.90;;;;;;5032954;28;20037;-71
2021/10/15 01:26:29;;;;;;;10.02;3.30;;;22.80;80.00;;;;;;5033189;28;20022;-71
2021/10/15 01:28:56;;;;;;;11.93;4.15;;;23.20;78.60;;;;;;5033064;28;20067;-70
2021/10/15 01:31:24;;;;;;;11.25;3.42;;;23.80;79.10;;;;;;5032957;28;20021;-71
2021/10/15 01:33:54;;;;;;;9.57;3.10;;;23.30;77.70;;;;;;5032961;28;20025;-71
2021/10/15 01:36:21;;;;;;;16.20;3.07;;;22.90;80.00;;;;;;5032994;28;20037;-70
2021/10/15 01:38:48;;;;;;;18.15;4.40;;;22.60;78.50;;;;;;5033120;28;20026;-70
2021/10/15 01:41:15;;;;;;;14.95;3.55;;;22.20;81.10;;;;;;5032800;28;20033;-71
2021/10/15 01:43:43;;;;;;;13.32;4.00;;;21.80;79.80;;;;;;5033038;28;20013;-71
2021/10/15 01:46:10;;;;;;;10.05;3.28;;;21.00;83.20;;;;;;5034739;28;20025;-70
2021/10/15 01:48:37;;;;;;;8.40;3.20;;;21.20;81.10;;;;;;5039394;28;20377;-70
2021/10/15 01:51:05;;;;;;;10.65;3.22;;;22.00;79.30;;;;;;5039248;28;20029;-70
2021/10/15 01:53:33;;;;;;;7.78;3.10;;;22.60;78.20;;;;;;5039271;28;20032;-71
2021/10/15 01:56:00;;;;;;;10.20;3.38;;;22.80;79.00;;;;;;5039572;28;20030;-70
2021/10/15 01:58:27;;;;;;;12.27;3.10;;;23.20;77.70;;;;;;5039210;28;20113;-70
2021/10/15 02:00:55;;;;;;;12.15;3.42;;;23.40;80.10;;;;;;5039430;28;20018;-70
2021/10/15 02:03:22;;;;;;;12.52;3.75;;;23.10;79.20;;;;;;5021469;28;20025;-70
2021/10/15 02:05:49;;;;;;;13.30;3.40;;;22.70;79.00;;;;;;5038772;28;20046;-70
2021/10/15 02:08:17;;;;;;;14.60;3.33;;;22.40;79.30;;;;;;5021518;28;20064;-70
2021/10/15 02:10:44;;;;;;;13.95;3.50;;;22.30;79.20;;;;;;5039200;28;20033;-71
2021/10/15 02:13:11;;;;;;;13.93;2.92;;;21.90;83.10;;;;;;5021435;28;20040;-70
2021/10/15 02:15:39;;;;;;;11.93;4.25;;;21.20;80.80;;;;;;5039452;28;20023;-70
2021/10/15 02:18:06;;;;;;;13.02;4.28;;;20.90;82.90;;;;;;5039452;28;20030;-71
2021/10/15 02:20:33;;;;;;;9.90;3.60;;;20.50;84.80;;;;;;5039336;28;20052;-70
2021/10/15 02:23:02;;;;;;;7.95;3.47;;;20.00;85.70;;;;;;5038014;28;20467;-70
2021/10/15 02:25:29;;;;;;;5.28;2.95;;;19.50;86.40;;;;;;5039351;28;20018;-70
2021/10/15 02:27:57;;;;;;;5.35;3.25;;;18.70;90.80;;;;;;5039536;28;20017;-70
2021/10/15 02:30:24;;;;;;;7.53;3.00;;;18.20;92.60;;;;;;5021455;28;20033;-70
2021/10/15 02:32:52;;;;;;;5.45;2.58;;;18.00;93.50;;;;;;5021232;28;20029;-71
2021/10/15 02:35:19;;;;;;;3.65;2.40;;;18.00;92.20;;;;;;5039037;28;20074;-70
2021/10/15 02:37:47;;;;;;;5.45;2.42;;;18.00;91.00;;;;;;5038915;28;20530;-71
2021/10/15 02:40:15;;;;;;;4.20;2.30;;;18.20;89.70;;;;;;5039040;28;20100;-70
2021/10/15 02:42:42;;;;;;;5.85;2.28;;;18.70;85.00;;;;;;5020930;28;20103;-70
2021/10/15 02:45:10;;;;;;;6.05;2.70;;;19.30;86.60;;;;;;5037365;28;20030;-70
2021/10/15 02:47:38;;;;;;;4.93;2.67;;;19.90;84.00;;;;;;5021364;28;20053;-70
2021/10/15 02:50:07;;;;;;;4.13;2.75;;;20.60;81.90;;;;;;5037257;28;20382;-70
2021/10/15 02:52:34;;;;;;;3.97;2.50;;;21.10;80.80;;;;;;5038692;28;20017;-70
2021/10/15 02:55:02;;;;;;;2.65;2.25;;;21.40;79.40;;;;;;5021089;28;20021;-72
2021/10/15 02:57:29;;;;;;;4.05;2.80;;;21.30;81.10;;;;;;5037992;28;20068;-71
2021/10/15 02:59:56;;;;;;;6.55;2.50;;;21.30;80.40;;;;;;5035841;28;20362;-72
2021/10/15 03:02:24;;;;;;;7.07;3.17;;;21.60;80.60;;;;;;5036032;28;20045;-73
2021/10/15 03:04:51;;;;;;;6.97;3.00;;;21.80;79.70;;;;;;5035064;28;20054;-71
2021/10/15 03:07:18;;;;;;;6.53;3.13;;;21.90;81.10;;;;;;5034450;28;20112;-71
2021/10/15 03:09:48;;;;;;;8.63;3.20;;;22.00;80.30;;;;;;5035655;28;20032;-71
2021/10/15 03:12:15;;;;;;;6.88;2.80;;;22.20;81.20;;;;;;5033999;28;20026;-70
2021/10/15 03:14:43;;;;;;;8.73;3.15;;;22.20;79.30;;;;;;5035429;28;20493;-70
2021/10/15 03:17:12;;;;;;;6.75;2.78;;;22.10;78.80;;;;;;5035283;28;20505;-70
2021/10/15 03:19:40;;;;;;;12.65;3.47;;;22.60;80.00;;;;;;5035188;28;20017;-71
2021/10/15 03:22:07;;;;;;;11.35;3.20;;;22.60;78.70;;;;;;5035419;28;20417;-71
2021/10/15 03:24:34;;;;;;;7.68;2.88;;;22.50;77.60;;;;;;5033832;28;20021;-71
2021/10/15 03:27:02;;;;;;;6.47;2.72;;;22.30;79.70;;;;;;5035071;28;20104;-71
2021/10/15 03:29:29;;;;;;;7.68;2.90;;;21.80;80.50;;;;;;5034994;28;20033;-72
2021/10/15 03:31:57;;;;;;;7.60;2.85;;;21.20;82.00;;;;;;5033859;28;20025;-71
2021/10/15 03:34:24;;;;;;;5.78;2.50;;;21.10;81.50;;;;;;5035107;28;20389;-71
2021/10/15 03:36:51;;;;;;;8.85;2.60;;;20.90;81.70;;;;;;5035153;28;20026;-72
2021/10/15 03:39:19;;;;;;;7.90;2.90;;;20.50;82.50;;;;;;5035196;28;20025;-74
2021/10/15 03:41:46;;;;;;;6.07;2.70;;;20.10;83.50;;;;;;5017238;28;20060;-71
2021/10/15 03:44:13;;;;;;;6.75;3.00;;;19.70;85.20;;;;;;5035396;28;20032;-71
2021/10/15 03:46:40;;;;;;;5.00;2.58;;;19.50;87.80;;;;;;5035085;28;20025;-71
2021/10/15 03:49:08;;;;;;;5.45;3.20;;;19.20;87.60;;;;;;5035218;28;20065;-71
2021/10/15 03:51:35;;;;;;;7.15;2.75;;;18.90;89.10;;;;;;5016964;28;20423;-71
2021/10/15 03:54:02;;;;;;;4.13;2.60;;;18.70;90.60;;;;;;5034557;28;20100;-71
2021/10/15 03:56:30;;;;;;;6.80;2.53;;;18.50;91.20;;;;;;5033046;28;20030;-71
2021/10/15 03:58:57;;;;;;;5.78;2.88;;;18.20;92.30;;;;;;5034777;28;20025;-71
2021/10/15 04:01:25;;;;;;;8.30;2.80;;;17.90;94.40;;;;;;5034384;28;20045;-71
2021/10/15 04:03:52;;;;;;;8.15;3.05;;;17.80;97.00;;;;;;5034399;28;20490;-71
2021/10/15 04:06:19;;;;;;;4.75;2.90;;;18.40;99.40;;;;;;5034659;28;20049;-71
2021/10/15 04:08:46;;;;;;;5.70;2.60;;;19.30;99.90;;;;;;5032888;28;20106;-71
2021/10/15 04:11:15;;;;;;;5.22;2.80;;;19.70;97.10;;;;;;5034445;28;20028;-71
2021/10/15 04:13:43;;;;;;;6.03;2.50;;;19.80;95.60;;;;;;5034329;28;20021;-70
2021/10/15 04:16:10;;;;;;;5.55;2.75;;;20.40;95.80;;;;;;5034311;28;20053;-71
2021/10/15 04:18:38;;;;;;;3.13;2.30;;;20.60;94.70;;;;;;5034666;28;20030;-71
2021/10/15 04:21:05;;;;;;;5.75;2.60;;;20.70;93.80;;;;;;5034312;28;20028;-71
2021/10/15 04:23:32;;;;;;;3.08;2.25;;;21.00;94.60;;;;;;5034476;28;20018;-71
2021/10/15 04:26:00;;;;;;;4.35;2.70;;;21.20;92.70;;;;;;5034516;28;20025;-71
2021/10/15 04:28:27;;;;;;;3.47;2.70;;;21.40;92.00;;;;;;5034249;28;20029;-72
2021/10/15 04:30:54;;;;;;;4.38;2.78;;;21.60;91.90;;;;;;5034182;28;20383;-72
2021/10/15 04:33:22;;;;;;;4.25;2.80;;;21.60;91.60;;;;;;5033946;28;20021;-72
2021/10/15 04:35:49;;;;;;;4.30;3.10;;;21.50;91.60;;;;;;5033844;28;20021;-72
2021/10/15 04:38:17;;;;;;;5.03;2.50;;;21.30;91.60;;;;;;5016010;28;20394;-72
2021/10/15 04:40:44;;;;;;;4.95;2.60;;;21.10;92.20;;;;;;5034109;28;20554;-72
2021/10/15 04:43:12;;;;;;;3.88;2.40;;;21.00;91.90;;;;;;5016446;28;20017;-72
2021/10/15 04:45:39;;;;;;;3.72;2.78;;;20.40;93.20;;;;;;5034017;28;20025;-72
2021/10/15 04:48:06;;;;;;;4.68;2.65;;;19.90;93.20;;;;;;5032676;28;20029;-72
2021/10/15 04:50:37;;;;;;;7.05;2.78;;;19.70;93.70;;;;;;5032464;28;20044;-72
2021/10/15 04:53:06;;;;;;;2.92;2.17;;;19.50;92.70;;;;;;5033740;28;20037;-72
2021/10/15 04:55:34;;;;;;;4.03;2.40;;;19.30;93.20;;;;;;5032387;28;20037;-72
2021/10/15 04:58:02;;;;;;;5.50;2.70;;;19.10;92.60;;;;;;5032098;28;20041;-72
2021/10/15 05:00:31;;;;;;;2.90;2.75;;;19.00;93.60;;;;;;5033906;28;20029;-72
2021/10/15 05:02:58;;;;;;;4.80;2.70;;;19.10;93.50;;;;;;5033591;28;20021;-72
2021/10/15 05:05:29;;;;;;;5.60;2.60;;;19.00;93.30;;;;;;5033281;28;20490;-71
2021/10/15 05:07:57;;;;;;;6.80;2.60;;;19.10;93.00;;;;;;5033471;28;20127;-72
2021/10/15 05:10:28;;;;;;;2.58;2.25;;;19.40;93.00;;;;;;5033249;28;20032;-72
2021/10/15 05:12:56;;;;;;;2.97;2.70;;;19.70;92.30;;;;;;5033677;28;20022;-72
2021/10/15 05:15:23;;;;;;;4.35;2.50;;;19.90;91.90;;;;;;5033186;28;20021;-71
2021/10/15 05:17:51;;;;;;;3.60;2.30;;;19.90;91.40;;;;;;5033203;28;20028;-72
2021/10/15 05:20:20;;;;;;;2.90;2.20;;;20.20;91.80;;;;;;5014964;28;20043;-72
2021/10/15 05:22:48;;;;;;;2.67;2.47;;;20.30;91.50;;;;;;5032984;28;20459;-71
2021/10/15 05:25:16;;;;;;;3.15;2.13;;;20.20;92.60;;;;;;5032914;28;20052;-72
2021/10/15 05:27:44;;;;;;;3.90;2.45;;;19.90;92.30;;;;;;5033097;28;20017;-71
2021/10/15 05:30:12;;;;;;;3.15;2.03;;;19.80;91.90;;;;;;5031613;28;20028;-71
2021/10/15 05:32:40;;;;;;;2.70;2.20;;;19.90;91.90;;;;;;5032956;28;20026;-71
2021/10/15 05:35:08;;;;;;;2.92;2.20;;;19.90;91.30;;;;;;5033273;28;20021;-71
2021/10/15 05:37:35;;;;;;;2.90;2.50;;;20.10;92.30;;;;;;5033124;28;20049;-71
2021/10/15 05:40:05;;;;;;;2.97;2.30;;;20.20;91.50;;;;;;5015127;28;20478;-71
2021/10/15 05:42:32;;;;;;;2.65;2.33;;;20.20;92.30;;;;;;5033111;28;20115;-72
2021/10/15 05:44:59;;;;;;;2.80;1.95;;;20.20;92.70;;;;;;5032899;28;20014;-73
2021/10/15 05:47:27;;;;;;;2.60;2.15;;;20.60;92.00;;;;;;5032706;28;20091;-72
2021/10/15 05:49:56;;;;;;;4.18;2.78;;;20.80;92.50;;;;;;5032969;28;20031;-72
2021/10/15 05:52:35;;;;;;;2.00;1.90;;;20.70;91.60;;;;;;5032918;28;20026;-72
2021/10/15 05:55:20;;;;;;;2.08;1.98;;;20.50;90.90;;;;;;5031665;28;20508;-72
2021/10/15 06:00:32;;;;;;;1.88;1.80;;;19.50;90.70;;;;;;5032772;28;20036;-73
2021/10/15 06:03:02;;;;;;;1.95;1.80;;;19.60;90.30;;;;;;5031608;28;20368;-73
2021/10/15 06:06:07;;;;;;;1.80;1.70;;;19.80;90.00;;;;;;5014668;28;20045;-73
2021/10/15 06:16:30;;;;;;;2.25;1.90;;;20.00;88.60;;;;;;5033140;28;20029;-73
2021/10/15 06:19:05;;;;;;;2.20;1.92;;;19.50;90.00;;;;;;5032702;28;20017;-74
2021/10/15 06:21:33;;;;;;;3.65;1.92;;;19.60;90.40;;;;;;5032563;28;20070;-73
2021/10/15 06:24:01;;;;;;;4.18;2.13;;;20.00;90.60;;;;;;5032460;28;20027;-74
2021/10/15 06:26:28;;;;;;;1.92;1.83;;;20.10;90.50;;;;;;5031382;28;20074;-74
2021/10/15 06:28:55;;;;;;;3.10;2.17;;;20.10;90.70;;;;;;5032411;28;20100;-72
2021/10/15 06:31:23;;;;;;;2.83;2.10;;;19.90;91.70;;;;;;5032293;28;20454;-73
2021/10/15 06:33:50;;;;;;;2.33;2.22;;;19.90;90.70;;;;;;5017595;28;20593;-73
2021/10/15 06:36:18;;;;;;;2.35;2.15;;;19.90;90.80;;;;;;5036067;28;20037;-73
2021/10/15 06:38:45;;;;;;;2.95;2.20;;;20.10;90.90;;;;;;5018140;28;20098;-75
2021/10/15 06:41:12;;;;;;;2.35;2.13;;;20.10;90.60;;;;;;5036218;28;20036;-74
2021/10/15 06:43:40;;;;;;;2.40;2.20;;;20.30;90.60;;;;;;5035933;28;20026;-75
2021/10/15 06:46:07;;;;;;;2.28;2.10;;;20.20;90.30;;;;;;5035992;28;20025;-74
2021/10/15 06:48:35;;;;;;;2.53;2.30;;;19.90;90.60;;;;;;5035955;28;20025;-74
2021/10/15 06:51:02;;;;;;;2.17;2.00;;;19.40;90.90;;;;;;5018439;28;20460;-75
2021/10/15 06:53:30;;;;;;;3.03;2.63;;;19.40;90.70;;;;;;5035973;28;20080;-75
2021/10/15 06:55:57;;;;;;;2.33;2.22;;;19.20;91.40;;;;;;5034854;28;20462;-75
2021/10/15 06:58:24;;;;;;;2.20;2.10;;;18.90;91.40;;;;;;5017958;28;20557;-75
2021/10/15 07:00:52;;;;;;;3.50;2.50;;;18.60;91.90;;;;;;5034617;28;20474;-75
2021/10/15 07:03:20;;;;;;;2.70;2.53;;;18.50;92.70;;;;;;5018065;28;20017;-75
2021/10/15 07:05:47;;;;;;;2.88;2.70;;;18.40;92.70;;;;;;5031182;28;20078;-75
2021/10/15 07:08:15;;;;;;;3.05;2.75;;;18.40;92.40;;;;;;5015954;28;20030;-74
2021/10/15 07:10:42;;;;;;;3.58;2.80;;;18.40;93.70;;;;;;5015954;28;20100;-75
2021/10/15 07:13:14;;;;;;;2.70;2.30;;;18.40;93.70;;;;;;5015706;28;20387;-75
2021/10/15 07:15:46;;;;;;;2.58;2.47;;;18.50;93.80;;;;;;5031103;28;20088;-75
2021/10/15 07:18:14;;;;;;;2.53;2.33;;;18.50;93.30;;;;;;5031046;28;20499;-75
2021/10/15 07:20:42;;;;;;;4.00;2.80;;;18.30;92.90;;;;;;5015567;28;20501;-75
2021/10/15 07:23:16;;;;;;;2.00;1.70;;;18.30;92.80;;;;;;5014085;28;20061;-75
2021/10/15 07:25:45;;;;;;;1.75;1.65;;;18.20;91.80;;;;;;5015159;28;20483;-75
2021/10/15 07:28:14;;;;;;;1.83;1.67;;;18.10;91.10;;;;;;5015779;28;20018;-75
2021/10/15 07:30:42;;;;;;;2.38;2.28;;;18.00;91.20;;;;;;5015281;28;20029;-75
2021/10/15 07:33:09;;;;;;;3.92;2.60;;;18.00;91.30;;;;;;5030660;28;20057;-75
2021/10/15 07:35:37;;;;;;;2.80;2.60;;;17.90;91.90;;;;;;5015291;28;20027;-75
2021/10/15 07:38:04;;;;;;;2.35;2.30;;;17.90;91.80;;;;;;5015336;28;20105;-75
2021/10/15 07:40:31;;;;;;;2.40;2.30;;;17.90;92.20;;;;;;5030085;28;20025;-75
2021/10/15 07:42:59;;;;;;;2.60;2.40;;;17.80;92.10;;;;;;5015112;28;20483;-74
2021/10/15 07:45:26;;;;;;;2.80;2.60;;;17.70;91.90;;;;;;5012907;28;20037;-76
2021/10/15 07:47:55;;;;;;;2.67;2.58;;;17.60;92.70;;;;;;5015258;28;20501;-76
2021/10/15 07:50:22;;;;;;;2.70;2.50;;;17.60;93.00;;;;;;5030503;28;20025;-75
2021/10/15 07:52:50;;;;;;;2.85;2.65;;;17.50;92.90;;;;;;5013628;28;20112;-75
2021/10/15 07:55:17;;;;;;;4.60;3.05;;;17.50;93.30;;;;;;5015024;28;20034;-73
2021/10/15 07:57:44;;;;;;;2.80;2.60;;;17.40;94.40;;;;;;5014460;28;20028;-75
2021/10/15 08:00:12;;;;;;;2.47;2.38;;;17.30;93.50;;;;;;5014930;28;20028;-75
2021/10/15 08:02:40;;;;;;;3.08;2.70;;;17.30;93.90;;;;;;5014881;28;20022;-75
2021/10/15 08:05:08;;;;;;;2.78;2.60;;;17.20;93.50;;;;;;5022504;28;20128;-74
2021/10/15 08:07:35;;;;;;;3.17;2.88;;;17.20;93.80;;;;;;5034329;28;20091;-73
2021/10/15 08:10:02;;;;;;;3.50;2.70;;;17.20;93.90;;;;;;5034191;28;20018;-72
2021/10/15 08:12:30;;;;;;;2.92;2.60;;;17.10;94.80;;;;;;5034313;28;20056;-71
2021/10/15 08:14:57;;;;;;;3.00;2.80;;;17.00;94.30;;;;;;5032915;28;20059;-72
2021/10/15 08:17:25;;;;;;;3.33;2.72;;;17.00;94.50;;;;;;5016314;28;20083;-72
2021/10/15 08:19:52;;;;;;;2.80;2.60;;;17.00;94.60;;;;;;5032758;28;20036;-72
2021/10/15 08:22:19;;;;;;;2.30;2.10;;;16.90;95.20;;;;;;5034526;28;20375;-73
2021/10/15 08:24:47;;;;;;;1.98;1.88;;;16.90;95.10;;;;;;5034145;28;20052;-73
2021/10/15 08:27:14;;;;;;;2.60;2.40;;;16.80;95.30;;;;;;5016228;28;20041;-75
2021/10/15 08:29:42;;;;;;;2.55;2.28;;;16.80;94.90;;;;;;5034147;28;20172;-76
2021/10/15 08:32:09;;;;;;;2.45;2.20;;;16.80;95.00;;;;;;5034072;28;20026;-73
2021/10/15 08:34:37;;;;;;;4.60;2.50;;;16.80;95.00;;;;;;5016308;28;20028;-72
2021/10/15 08:37:05;;;;;;;2.60;2.40;;;16.80;95.70;;;;;;5033738;28;20104;-72
2021/10/15 08:39:32;;;;;;;3.17;2.60;;;16.80;96.00;;;;;;5033471;28;20112;-74
2021/10/15 08:42:00;;;;;;;2.45;2.35;;;16.70;95.50;;;;;;5033644;28;20029;-73
2021/10/15 08:44:44;;;;;;;2.83;2.55;;;16.70;95.80;;;;;;5032694;28;20017;-74
2021/10/15 08:47:14;;;;;;;2.60;2.50;;;16.70;97.10;;;;;;5015896;28;20029;-72
2021/10/15 08:49:43;;;;;;;2.67;2.57;;;16.60;97.90;;;;;;5032362;28;20378;-73
2021/10/15 08:52:11;;;;;;;2.90;2.80;;;16.50;97.90;;;;;;5032664;28;20536;-72
2021/10/15 08:54:43;;;;;;;3.78;2.47;;;16.40;99.00;;;;;;5033748;28;20047;-75
2021/10/15 08:57:12;;;;;;;5.25;2.47;;;16.30;98.00;;;;;;5033475;28;20053;-74
2021/10/15 08:59:45;;;;;;;2.28;2.17;;;16.40;97.10;;;;;;5034162;28;20033;-74
2021/10/15 09:02:18;;;;;;;2.42;2.15;;;16.40;96.80;;;;;;5033510;28;20075;-73
2021/10/15 09:04:56;;;;;;;2.45;2.35;;;16.30;96.90;;;;;;5028672;28;20069;-74
2021/10/15 09:07:26;;;;;;;2.55;2.22;;;16.30;97.20;;;;;;5012677;28;20426;-72
2021/10/15 09:10:12;;;;;;;2.35;2.20;;;16.20;96.80;;;;;;5013725;28;20028;-72
2021/10/15 09:12:57;;;;;;;2.22;2.13;;;16.10;96.90;;;;;;5013601;28;20026;-71
2021/10/15 09:15:35;;;;;;;2.40;2.28;;;16.00;97.70;;;;;;5013457;28;20022;-71
2021/10/15 09:18:14;;;;;;;2.10;2.00;;;16.00;98.00;;;;;;5028631;28;20022;-72
2021/10/15 09:20:43;;;;;;;1.92;1.92;;;15.90;97.60;;;;;;5012413;28;20029;-73
2021/10/15 09:23:12;;;;;;;2.20;2.10;;;15.90;98.00;;;;;;5013516;28;20533;-72
2021/10/15 09:25:43;;;;;;;2.15;2.05;;;15.80;97.60;;;;;;5013669;28;20014;-73
2021/10/15 09:28:23;;;;;;;2.13;2.03;;;15.70;97.90;;;;;;5013254;28;20029;-71
2021/10/15 09:30:51;;;;;;;2.20;2.10;;;15.70;97.90;;;;;;5013529;28;20479;-71
2021/10/15 09:33:20;;;;;;;2.58;2.38;;;15.60;98.00;;;;;;5013543;28;20025;-71
2021/10/15 09:35:48;;;;;;;2.40;2.30;;;15.60;97.70;;;;;;5013287;28;20025;-72
2021/10/15 09:38:15;;;;;;;3.30;2.45;;;15.60;98.00;;;;;;5013096;28;20491;-71
2021/10/15 09:40:48;;;;;;;2.33;2.22;;;15.60;98.70;;;;;;5013344;28;20429;-71
2021/10/15 09:43:16;;;;;;;2.30;2.20;;;15.50;97.90;;;;;;5013253;28;20415;-72
2021/10/15 09:45:46;;;;;;;2.38;2.28;;;15.50;98.20;;;;;;5013350;28;20030;-72
2021/10/15 09:48:35;;;;;;;2.20;2.20;;;15.50;97.70;;;;;;5013379;28;20037;-72
2021/10/15 09:51:19;;;;;;;2.67;2.45;;;15.50;99.30;;;;;;5028564;28;20053;-72
2021/10/15 09:54:18;;;;;;;2.40;2.30;;;15.50;99.90;;;;;;5013457;28;20022;-72
2021/10/15 09:56:49;;;;;;;2.10;2.00;;;15.40;99.90;;;;;;5013548;28;20105;-72
2021/10/15 09:59:17;;;;;;;2.22;2.13;;;15.40;99.90;;;;;;5028082;28;20052;-71
2021/10/15 10:01:44;;;;;;;2.50;2.20;;;15.40;99.90;;;;;;5011689;28;20482;-71
2021/10/15 10:04:12;;;;;;;2.95;2.05;;;15.30;98.80;;;;;;5012087;28;20029;-71
2021/10/15 10:06:40;;;;;;;1.80;1.80;;;15.40;98.50;;;;;;5031406;28;20454;-70
2021/10/15 10:09:09;;;;;;;2.03;1.92;;;15.40;98.00;;;;;;5035125;28;20083;-71
2021/10/15 10:11:37;;;;;;;2.00;2.00;;;15.30;98.20;;;;;;5036912;28;20025;-72
2021/10/15 10:14:04;;;;;;;2.08;2.00;;;15.30;98.60;;;;;;5036673;28;20076;-74
2021/10/15 10:16:34;;;;;;;2.00;2.00;;;15.30;98.40;;;;;;5036405;28;20499;-72
2021/10/15 10:19:04;;;;;;;2.20;2.10;;;15.20;98.20;;;;;;5036531;28;20048;-73
2021/10/15 10:21:34;;;;;;;2.20;2.10;;;15.20;98.00;;;;;;5018840;28;20074;-71
2021/10/15 10:24:12;;;;;;;2.35;2.22;;;15.10;98.10;;;;;;5036936;28;20366;-73
2021/10/15 10:26:52;;;;;;;2.40;2.30;;;15.10;98.10;;;;;;5036812;28;20148;-73
2021/10/15 10:29:20;;;;;;;2.50;2.40;;;15.10;98.70;;;;;;5036323;28;20060;-71
2021/10/15 10:31:48;;;;;;;2.80;2.60;;;15.00;98.50;;;;;;5036453;28;20108;-72
2021/10/15 10:34:24;;;;;;;2.35;2.25;;;15.10;99.10;;;;;;5036313;28;20506;-72
2021/10/15 10:37:07;;;;;;;2.60;2.40;;;14.90;99.10;;;;;;5018776;28;20064;-72
2021/10/15 10:39:36;;;;;;;2.40;2.30;;;14.90;99.40;;;;;;5034947;28;20029;-71
2021/10/15 10:42:10;;;;;;;2.30;2.30;;;14.90;99.60;;;;;;5036289;28;20026;-70
2021/10/15 10:44:40;;;;;;;2.60;2.40;;;14.90;99.20;;;;;;5036502;28;20105;-70
2021/10/15 10:47:15;;;;;;;2.50;2.40;;;14.90;99.40;;;;;;5036181;28;20025;-70
2021/10/15 10:50:09;;;;;;;2.47;2.38;;;14.80;99.30;;;;;;5036287;28;20075;-71
2021/10/15 10:52:48;;;;;;;2.58;2.47;;;14.80;99.50;;;;;;5009833;28;20063;-71
2021/10/15 10:55:54;;;;;;;2.40;2.30;;;14.70;99.60;;;;;;5035930;28;20028;-70
2021/10/15 10:58:38;;;;;;;2.50;2.40;;;14.70;99.70;;;;;;5018024;28;20034;-71
2021/10/15 11:01:26;;;;;;;2.80;2.70;;;14.60;99.90;;;;;;5036084;28;20018;-71
2021/10/15 11:03:58;;;;;;;2.42;2.33;;;14.60;99.90;;;;;;5017745;28;20026;-71
2021/10/15 11:06:56;;;;;;;2.70;2.50;;;14.50;99.90;;;;;;5034441;28;20045;-71
2021/10/15 11:09:34;;;;;;;2.50;2.40;;;14.60;99.90;;;;;;5036115;28;20323;-71
2021/10/15 11:12:02;;;;;;;2.10;2.10;;;14.50;99.90;;;;;;5035628;28;20021;-71
2021/10/15 11:14:51;;;;;;;2.55;2.30;;;14.50;99.90;;;;;;5035820;28;20097;-72
2021/10/15 11:17:23;;;;;;;2.40;2.30;;;14.50;99.90;;;;;;5035592;28;20022;-72
2021/10/15 11:20:11;;;;;;;2.60;2.50;;;14.50;99.90;;;;;;5034350;28;20151;-72
2021/10/15 11:22:41;;;;;;;2.80;2.70;;;14.50;99.90;;;;;;5034199;28;20080;-71
2021/10/15 11:25:10;;;;;;;2.80;2.70;;;14.40;99.90;;;;;;5034297;28;20532;-72
2021/10/15 11:27:38;;;;;;;2.70;2.60;;;14.50;99.90;;;;;;5017606;28;20021;-72
2021/10/15 11:30:11;;;;;;;2.78;2.67;;;14.40;99.90;;;;;;5035176;28;20018;-71
2021/10/15 11:32:46;;;;;;;2.72;2.55;;;14.40;99.90;;;;;;5017633;28;20021;-72
2021/10/15 11:35:38;;;;;;;2.60;2.50;;;14.20;99.90;;;;;;5033950;28;20112;-71
2021/10/15 11:38:18;;;;;;;2.80;2.50;;;14.50;99.90;;;;;;5035189;28;20103;-72
2021/10/15 11:40:51;;;;;;;2.70;2.50;;;14.40;99.90;;;;;;5035237;28;20014;-72
2021/10/15 11:43:27;;;;;;;2.50;2.40;;;14.30;99.90;;;;;;5035020;28;20033;-71
2021/10/15 11:45:59;;;;;;;2.53;2.42;;;14.20;99.90;;;;;;5033790;28;20048;-72
2021/10/15 11:48:28;;;;;;;2.67;2.58;;;14.10;99.90;;;;;;5017202;28;20403;-72
2021/10/15 11:51:01;;;;;;;2.70;2.60;;;14.00;99.90;;;;;;5034769;28;20021;-71
2021/10/15 11:53:32;;;;;;;2.95;2.75;;;14.10;99.90;;;;;;5035127;28;20432;-71
2021/10/15 11:56:03;;;;;;;2.70;2.50;;;13.90;99.90;;;;;;5035014;28;20022;-72
2021/10/15 11:58:31;;;;;;;;;;;13.90;99.90;;;;;;5035457;28;20470;-71
2021/10/15 12:00:59;;;;;;;2.88;2.78;;;13.90;99.90;;;;;;5016945;28;20384;-72
2021/10/15 12:03:31;;;;;;;3.10;3.00;;;13.70;99.90;;;;;;5017060;28;20454;-72
2021/10/15 12:06:23;;;;;;;3.20;3.00;;;13.80;99.90;;;;;;5034552;28;20037;-72
2021/10/15 12:08:58;;;;;;;3.00;2.90;;;13.70;99.90;;;;;;5034682;28;20404;-71
2021/10/15 12:11:43;;;;;;;3.15;3.05;;;13.60;99.90;;;;;;5034273;28;20054;-71
2021/10/15 12:14:17;;;;;;;3.40;3.30;;;13.60;99.90;;;;;;5034567;28;20034;-70
2021/10/15 12:16:55;;;;;;;3.20;3.10;;;13.50;99.90;;;;;;5034450;28;20025;-71
2021/10/15 12:19:28;;;;;;;3.33;3.17;;;13.50;99.90;;;;;;5034248;28;20033;-71
2021/10/15 12:21:59;;;;;;;4.00;3.70;;;13.40;99.90;;;;;;5033127;28;20157;-71
2021/10/15 12:24:38;;;;;;;3.03;2.92;;;13.50;99.90;;;;;;5033977;28;20013;-70
2021/10/15 12:27:26;;;;;;;3.65;3.35;;;13.50;99.90;;;;;;5034227;28;20025;-71
2021/10/15 12:29:59;;;;;;;3.15;2.95;;;13.40;99.90;;;;;;5033561;28;20060;-71
2021/10/15 12:32:37;;;;;;;3.22;2.88;;;13.40;99.90;;;;;;5016287;28;20022;-71
2021/10/15 12:35:15;;;;;;;2.90;2.80;;;13.40;99.90;;;;;;5034249;28;20026;-71
2021/10/15 12:37:43;;;;;;;3.08;2.90;;;13.40;99.90;;;;;;5034204;28;20072;-71
2021/10/15 12:40:23;;;;;;;2.90;2.80;;;13.40;99.90;;;;;;5033924;28;20028;-72
2021/10/15 12:43:02;;;;;;;3.20;3.00;;;13.30;99.90;;;;;;5034098;28;20017;-72
2021/10/15 12:45:29;;;;;;;3.00;2.90;;;13.20;99.90;;;;;;5033914;28;20097;-71
2021/10/15 12:48:01;;;;;;;3.10;3.00;;;13.30;99.90;;;;;;5016037;28;20483;-71
2021/10/15 12:50:31;;;;;;;4.00;3.80;;;13.20;99.90;;;;;;5033715;28;20029;-72
2021/10/15 12:53:09;;;;;;;3.10;3.00;;;13.20;99.90;;;;;;5033947;28;20021;-72
2021/10/15 12:55:46;;;;;;;3.03;2.92;;;13.30;99.90;;;;;;5032519;28;20037;-72
2021/10/15 12:58:14;;;;;;;2.90;2.80;;;13.30;99.90;;;;;;5033540;28;20472;-72
2021/10/15 13:01:00;;;;;;;2.97;2.88;;;13.30;99.90;;;;;;5033533;28;20028;-72
2021/10/15 13:03:28;;;;;;;2.90;2.80;;;13.30;99.90;;;;;;5016084;28;20032;-71
2021/10/15 13:05:59;;;;;;;2.80;2.70;;;13.30;99.90;;;;;;5033163;28;20053;-72
2021/10/15 13:08:27;;;;;;;2.90;2.80;;;13.30;99.90;;;;;;5033543;28;20022;-71
2021/10/15 13:10:56;;;;;;;2.90;2.80;;;13.30;99.90;;;;;;5033729;28;20096;-72
2021/10/15 13:13:23;;;;;;;2.30;2.30;;;13.20;99.90;;;;;;5033399;28;20037;-71